Contact Us:
Email: info@sawbill.com
Phone: (218)663-7150
Fax: (218)663-7980
Mail: 4620 Sawbill Trail
Box 2129
Tofte, MN 55615


Powered by
Movable Type 3.15
 
Sawbill Weather History Archives: June 2008
Current Sawbill Weather History | « May 2008 | July 2008 »


Date

High
Temperature

Low
Temperature

Barometric
Pressure

Relative
Humidity 7AM

9 AM
Temperature

Moisture

Snow

6/30/08 75 50 29.91 74% 64 0
6/29/08 71 48 30.09 81% 50 0
6/28/08 68 53 29.85 89% 57 .24"
6/27/08 70 57 29.56 98% 59 .19"
6/26/08 76 56 29.80 81% 63 0
6/25/08 74 57 29.94 97% 60 .37"
6/24/08 78 58 29.94 90% 58 .09"
6/23/08 74 50 30.09 84% 56 Trace
6/22/08 67 48 30.09 93% 51 .13"
6/21/08 68 55 29.97 83% 58 .08"
6/20/08 76 52 29.97 88% 58 .05"
6/19/08 72 46 29.91 85% 58 0
6/18/08 68 44 29.97 80% 47 0
6/17/08 66 45 30.03 85% 49 0
6/16/08 61 48 30.00 85% 49 0
6/15/08 63 46 29.91 98% 46 .24"
6/14/08 65 52 29.77 79% 58 .01"
6/13/08 68 49 29.81 76% 54 0
6/12/08 62 50 29.68 98% 52 .24"
6/11/08 54 39 29.85 98% 51 .3"
6/10/08 51 37 30.09 92% 40 .07"
6/9/08 68 48 29.77 92% 48 .34"
6/8/08 73 53 29.65 95% 55 .29"
6/7/08 74 53 29.85 85% 60 0
6/6/08 63 54 29.03 98% 65 .09"
6/5/08 59 49 29.53 98% 56 2"
6/4/08 58 46 29.80 96% 50 .52"
6/3/08 62 44 29.74 69% 46 0
6/2/08 64 40 30.00 59% 45 0
6/1/08 71 46 29.97 65% 50 0
 


Home I Trip Planning I Rentals and Outfitting I Reservations I Campgrounds I Sawbill Store I Sawbill News I Contact

© 1997 - 2017, Sawbill Canoe Outfitters, Inc. I Privacy Policy